sensor_id;sensor_type;location;lat;lon;timestamp;pressure;altitude;pressure_sealevel;temperature;humidity
18504;BME280;9381;54.244;10.074;2022-09-01T00:03:21;102025.13;;;13.91;90.44
18504;BME280;9381;54.244;10.074;2022-09-01T00:08:24;102028.03;;;13.77;90.54
18504;BME280;9381;54.244;10.074;2022-09-01T00:13:24;102025.53;;;13.75;90.40
18504;BME280;9381;54.244;10.074;2022-09-01T00:18:25;102018.84;;;13.78;90.36
18504;BME280;9381;54.244;10.074;2022-09-01T00:23:26;102015.06;;;13.72;90.97
18504;BME280;9381;54.244;10.074;2022-09-01T00:28:27;102013.81;;;13.75;90.99
18504;BME280;9381;54.244;10.074;2022-09-01T00:33:27;102007.94;;;13.78;90.86
18504;BME280;9381;54.244;10.074;2022-09-01T00:38:28;102011.72;;;13.70;91.67
18504;BME280;9381;54.244;10.074;2022-09-01T00:43:50;102015.06;;;13.66;92.05
18504;BME280;9381;54.244;10.074;2022-09-01T00:48:55;102011.09;;;13.62;91.81
18504;BME280;9381;54.244;10.074;2022-09-01T00:53:57;102009.38;;;13.54;92.43
18504;BME280;9381;54.244;10.074;2022-09-01T00:59:00;102004.16;;;13.59;92.87
18504;BME280;9381;54.244;10.074;2022-09-01T01:04:05;101996.19;;;13.51;92.62
18504;BME280;9381;54.244;10.074;2022-09-01T01:09:06;101998.72;;;13.53;93.41
18504;BME280;9381;54.244;10.074;2022-09-01T01:14:08;102001.88;;;13.56;92.84
18504;BME280;9381;54.244;10.074;2022-09-01T01:24:42;101995.78;;;13.54;92.64
18504;BME280;9381;54.244;10.074;2022-09-01T01:29:43;101991.19;;;13.48;92.56
18504;BME280;9381;54.244;10.074;2022-09-01T01:34:44;101995.75;;;13.48;92.51
18504;BME280;9381;54.244;10.074;2022-09-01T01:39:46;101986.13;;;13.45;92.79
18504;BME280;9381;54.244;10.074;2022-09-01T01:44:48;101980.31;;;13.48;92.74
18504;BME280;9381;54.244;10.074;2022-09-01T01:49:49;101983.22;;;13.47;92.82
18504;BME280;9381;54.244;10.074;2022-09-01T01:54:49;101983.66;;;13.50;93.14
18504;BME280;9381;54.244;10.074;2022-09-01T01:59:49;101993.25;;;13.46;93.23
18504;BME280;9381;54.244;10.074;2022-09-01T02:04:50;101989.88;;;13.38;93.05
18504;BME280;9381;54.244;10.074;2022-09-01T02:09:50;101994.88;;;13.34;93.21
18504;BME280;9381;54.244;10.074;2022-09-01T02:14:51;102003.22;;;13.26;93.42
18504;BME280;9381;54.244;10.074;2022-09-01T02:19:53;101994.00;;;13.27;93.75
18504;BME280;9381;54.244;10.074;2022-09-01T02:24:56;101991.72;;;13.24;93.18
18504;BME280;9381;54.244;10.074;2022-09-01T02:29:56;101998.00;;;13.25;92.58
18504;BME280;9381;54.244;10.074;2022-09-01T02:34:57;101995.03;;;13.13;92.43
18504;BME280;9381;54.244;10.074;2022-09-01T02:40:00;101996.06;;;13.12;91.74
18504;BME280;9381;54.244;10.074;2022-09-01T02:45:01;101992.03;;;13.02;91.91
18504;BME280;9381;54.244;10.074;2022-09-01T02:50:02;101983.06;;;13.01;92.01
18504;BME280;9381;54.244;10.074;2022-09-01T02:55:03;101975.53;;;12.97;93.11
18504;BME280;9381;54.244;10.074;2022-09-01T03:00:07;101981.53;;;12.92;93.52
18504;BME280;9381;54.244;10.074;2022-09-01T03:05:20;101973.38;;;12.92;93.70
18504;BME280;9381;54.244;10.074;2022-09-01T03:10:27;101977.94;;;12.85;93.95
18504;BME280;9381;54.244;10.074;2022-09-01T03:15:31;101974.63;;;12.90;94.39
18504;BME280;9381;54.244;10.074;2022-09-01T03:20:34;101979.25;;;12.96;94.18
18504;BME280;9381;54.244;10.074;2022-09-01T03:25:36;101976.66;;;12.81;94.10
18504;BME280;9381;54.244;10.074;2022-09-01T03:30:36;101978.72;;;12.79;93.69
18504;BME280;9381;54.244;10.074;2022-09-01T03:35:39;101980.56;;;12.72;93.93
18504;BME280;9381;54.244;10.074;2022-09-01T03:40:39;101979.13;;;12.70;93.70
18504;BME280;9381;54.244;10.074;2022-09-01T03:45:40;101998.31;;;12.68;93.69
18504;BME280;9381;54.244;10.074;2022-09-01T03:50:42;101985.78;;;12.67;93.48
18504;BME280;9381;54.244;10.074;2022-09-01T03:55:46;101989.53;;;12.66;94.13
18504;BME280;9381;54.244;10.074;2022-09-01T04:00:50;101994.84;;;12.81;94.50
18504;BME280;9381;54.244;10.074;2022-09-01T04:05:54;101990.22;;;12.81;94.33
18504;BME280;9381;54.244;10.074;2022-09-01T04:10:56;101992.94;;;12.81;94.49
18504;BME280;9381;54.244;10.074;2022-09-01T04:15:57;101995.03;;;12.79;94.84
18504;BME280;9381;54.244;10.074;2022-09-01T04:20:59;101991.69;;;12.77;94.89
18504;BME280;9381;54.244;10.074;2022-09-01T04:26:02;101992.09;;;12.74;94.47
18504;BME280;9381;54.244;10.074;2022-09-01T04:31:11;102004.16;;;12.65;94.51
18504;BME280;9381;54.244;10.074;2022-09-01T04:36:24;101990.94;;;12.62;94.72
18504;BME280;9381;54.244;10.074;2022-09-01T04:41:30;101997.41;;;12.61;94.59
18504;BME280;9381;54.244;10.074;2022-09-01T04:46:34;101994.47;;;12.56;94.54
18504;BME280;9381;54.244;10.074;2022-09-01T04:51:43;102001.09;;;12.47;95.29
18504;BME280;9381;54.244;10.074;2022-09-01T04:56:47;101995.41;;;12.42;96.12
18504;BME280;9381;54.244;10.074;2022-09-01T05:01:52;101992.38;;;12.52;96.46
18504;BME280;9381;54.244;10.074;2022-09-01T05:06:56;101997.41;;;12.61;96.74
18504;BME280;9381;54.244;10.074;2022-09-01T05:12:00;101994.06;;;12.59;96.79
18504;BME280;9381;54.244;10.074;2022-09-01T05:17:11;101999.97;;;12.69;96.47
18504;BME280;9381;54.244;10.074;2022-09-01T05:22:13;101990.00;;;12.76;96.79
18504;BME280;9381;54.244;10.074;2022-09-01T05:27:15;101986.28;;;12.84;97.37
18504;BME280;9381;54.244;10.074;2022-09-01T05:32:17;102001.66;;;13.04;97.99
18504;BME280;9381;54.244;10.074;2022-09-01T05:37:17;102004.44;;;13.17;98.73
18504;BME280;9381;54.244;10.074;2022-09-01T05:42:17;102001.97;;;13.22;99.36
18504;BME280;9381;54.244;10.074;2022-09-01T05:47:17;101998.22;;;13.36;100.00
18504;BME280;9381;54.244;10.074;2022-09-01T05:52:20;102002.06;;;13.48;100.00
18504;BME280;9381;54.244;10.074;2022-09-01T05:57:25;102003.75;;;13.62;100.00
18504;BME280;9381;54.244;10.074;2022-09-01T06:02:25;102002.50;;;13.78;100.00
18504;BME280;9381;54.244;10.074;2022-09-01T06:07:26;102004.41;;;13.90;100.00
18504;BME280;9381;54.244;10.074;2022-09-01T06:12:27;101997.34;;;14.09;100.00
18504;BME280;9381;54.244;10.074;2022-09-01T06:17:28;102002.16;;;14.26;100.00
18504;BME280;9381;54.244;10.074;2022-09-01T06:22:29;102003.84;;;14.47;100.00
18504;BME280;9381;54.244;10.074;2022-09-01T06:27:31;102015.97;;;14.64;100.00
18504;BME280;9381;54.244;10.074;2022-09-01T06:32:31;102008.38;;;14.78;100.00
18504;BME280;9381;54.244;10.074;2022-09-01T06:37:34;102007.50;;;14.97;100.00
18504;BME280;9381;54.244;10.074;2022-09-01T06:42:37;102005.31;;;15.19;100.00
18504;BME280;9381;54.244;10.074;2022-09-01T06:47:37;102011.13;;;15.42;100.00
18504;BME280;9381;54.244;10.074;2022-09-01T06:52:38;102015.19;;;15.64;100.00
18504;BME280;9381;54.244;10.074;2022-09-01T06:57:40;102014.59;;;15.93;100.00
18504;BME280;9381;54.244;10.074;2022-09-01T07:02:45;102015.03;;;16.21;100.00
18504;BME280;9381;54.244;10.074;2022-09-01T07:07:47;102016.72;;;16.46;100.00
18504;BME280;9381;54.244;10.074;2022-09-01T07:12:54;102012.38;;;16.81;100.00
18504;BME280;9381;54.244;10.074;2022-09-01T07:17:56;102009.09;;;17.09;100.00
18504;BME280;9381;54.244;10.074;2022-09-01T07:22:57;102006.25;;;17.51;100.00
18504;BME280;9381;54.244;10.074;2022-09-01T07:27:58;102009.59;;;17.83;97.11
18504;BME280;9381;54.244;10.074;2022-09-01T07:32:59;102010.88;;;18.09;95.72
18504;BME280;9381;54.244;10.074;2022-09-01T07:37:59;102008.09;;;18.50;93.04
18504;BME280;9381;54.244;10.074;2022-09-01T07:43:00;102012.03;;;18.66;90.37
18504;BME280;9381;54.244;10.074;2022-09-01T07:48:00;102009.28;;;18.77;86.70
18504;BME280;9381;54.244;10.074;2022-09-01T07:53:05;102016.41;;;19.01;85.46
18504;BME280;9381;54.244;10.074;2022-09-01T07:58:07;102009.59;;;19.27;86.05
18504;BME280;9381;54.244;10.074;2022-09-01T08:03:07;102005.41;;;19.64;83.72
18504;BME280;9381;54.244;10.074;2022-09-01T08:08:08;102009.78;;;19.76;80.66
18504;BME280;9381;54.244;10.074;2022-09-01T08:13:09;102010.94;;;19.80;79.92
18504;BME280;9381;54.244;10.074;2022-09-01T08:18:10;102013.56;;;19.75;76.56
18504;BME280;9381;54.244;10.074;2022-09-01T08:23:14;102023.19;;;19.89;78.31
18504;BME280;9381;54.244;10.074;2022-09-01T08:28:15;102029.84;;;19.93;74.83
18504;BME280;9381;54.244;10.074;2022-09-01T08:33:16;102026.44;;;20.03;76.09
18504;BME280;9381;54.244;10.074;2022-09-01T08:38:16;102028.34;;;20.02;74.03
18504;BME280;9381;54.244;10.074;2022-09-01T08:48:35;102031.31;;;19.84;72.06
18504;BME280;9381;54.244;10.074;2022-09-01T08:53:46;102031.03;;;19.69;74.84
18504;BME280;9381;54.244;10.074;2022-09-01T08:58:48;102027.72;;;19.67;78.34
18504;BME280;9381;54.244;10.074;2022-09-01T09:09:08;102030.34;;;19.62;80.32
18504;BME280;9381;54.244;10.074;2022-09-01T09:19:36;102022.69;;;19.64;81.32
18504;BME280;9381;54.244;10.074;2022-09-01T09:24:51;102024.34;;;19.65;77.74
18504;BME280;9381;54.244;10.074;2022-09-01T09:29:53;102027.97;;;19.82;74.49
18504;BME280;9381;54.244;10.074;2022-09-01T09:34:54;102023.66;;;20.47;72.22
18504;BME280;9381;54.244;10.074;2022-09-01T09:40:18;102009.25;;;21.54;68.48
18504;BME280;9381;54.244;10.074;2022-09-01T09:45:23;102012.69;;;22.19;62.46
18504;BME280;9381;54.244;10.074;2022-09-01T09:50:26;101991.34;;;23.14;64.12
18504;BME280;9381;54.244;10.074;2022-09-01T09:55:28;101989.44;;;24.26;53.89
18504;BME280;9381;54.244;10.074;2022-09-01T10:00:32;101985.97;;;25.08;51.92
18504;BME280;9381;54.244;10.074;2022-09-01T10:05:37;101973.69;;;25.88;50.41
18504;BME280;9381;54.244;10.074;2022-09-01T10:10:44;101984.09;;;26.06;49.63
18504;BME280;9381;54.244;10.074;2022-09-01T10:15:51;101978.91;;;25.51;48.75
18504;BME280;9381;54.244;10.074;2022-09-01T10:20:56;101976.72;;;24.54;49.67
18504;BME280;9381;54.244;10.074;2022-09-01T10:26:14;101979.44;;;24.79;52.20
18504;BME280;9381;54.244;10.074;2022-09-01T10:31:16;101976.97;;;25.46;48.81
18504;BME280;9381;54.244;10.074;2022-09-01T10:36:17;101975.84;;;26.29;47.46
18504;BME280;9381;54.244;10.074;2022-09-01T10:46:44;101967.69;;;28.34;42.79
18504;BME280;9381;54.244;10.074;2022-09-01T10:51:45;101967.94;;;28.51;41.76
18504;BME280;9381;54.244;10.074;2022-09-01T10:56:47;101964.44;;;28.59;40.54
18504;BME280;9381;54.244;10.074;2022-09-01T11:32:51;101974.91;;;23.44;48.63
18504;BME280;9381;54.244;10.074;2022-09-01T11:38:03;101975.59;;;24.60;47.27
18504;BME280;9381;54.244;10.074;2022-09-01T11:43:08;101974.28;;;26.18;44.90
18504;BME280;9381;54.244;10.074;2022-09-01T11:48:11;101948.84;;;27.57;42.10
18504;BME280;9381;54.244;10.074;2022-09-01T11:53:19;101950.50;;;28.45;41.06
18504;BME280;9381;54.244;10.074;2022-09-01T12:03:28;101950.22;;;28.47;39.50
18504;BME280;9381;54.244;10.074;2022-09-01T12:08:31;101952.28;;;28.55;38.64
18504;BME280;9381;54.244;10.074;2022-09-01T12:13:33;101955.16;;;27.63;40.59
18504;BME280;9381;54.244;10.074;2022-09-01T12:18:42;101943.25;;;26.73;42.20
18504;BME280;9381;54.244;10.074;2022-09-01T12:23:43;101944.78;;;27.31;40.93
18504;BME280;9381;54.244;10.074;2022-09-01T12:28:45;101936.84;;;27.62;39.94
18504;BME280;9381;54.244;10.074;2022-09-01T12:33:50;101932.56;;;28.19;41.09
18504;BME280;9381;54.244;10.074;2022-09-01T12:38:53;101935.97;;;28.35;39.17
18504;BME280;9381;54.244;10.074;2022-09-01T12:43:53;101927.13;;;28.60;38.28
18504;BME280;9381;54.244;10.074;2022-09-01T12:49:18;101921.72;;;29.09;37.85
18504;BME280;9381;54.244;10.074;2022-09-01T12:54:23;101924.78;;;28.21;38.99
18504;BME280;9381;54.244;10.074;2022-09-01T12:59:25;101916.19;;;28.50;39.06
18504;BME280;9381;54.244;10.074;2022-09-01T13:04:28;101924.06;;;27.79;39.99
18504;BME280;9381;54.244;10.074;2022-09-01T13:09:30;101926.28;;;28.14;39.06
18504;BME280;9381;54.244;10.074;2022-09-01T13:14:30;101913.31;;;28.23;39.13
18504;BME280;9381;54.244;10.074;2022-09-01T13:19:31;101913.56;;;27.76;39.90
18504;BME280;9381;54.244;10.074;2022-09-01T13:24:31;101908.84;;;27.40;40.57
18504;BME280;9381;54.244;10.074;2022-09-01T13:29:31;101914.88;;;27.23;39.45
18504;BME280;9381;54.244;10.074;2022-09-01T13:34:33;101910.16;;;27.00;40.94
18504;BME280;9381;54.244;10.074;2022-09-01T13:39:34;101915.03;;;26.66;41.52
18504;BME280;9381;54.244;10.074;2022-09-01T13:44:34;101918.91;;;25.70;43.33
18504;BME280;9381;54.244;10.074;2022-09-01T13:49:35;101906.38;;;25.77;43.22
18504;BME280;9381;54.244;10.074;2022-09-01T13:54:35;101908.41;;;25.23;43.25
18504;BME280;9381;54.244;10.074;2022-09-01T13:59:37;101913.03;;;24.74;44.71
18504;BME280;9381;54.244;10.074;2022-09-01T14:04:37;101904.66;;;24.89;44.15
18504;BME280;9381;54.244;10.074;2022-09-01T14:09:38;101916.94;;;24.48;44.92
18504;BME280;9381;54.244;10.074;2022-09-01T14:14:38;101908.97;;;24.07;45.87
18504;BME280;9381;54.244;10.074;2022-09-01T14:19:38;101904.84;;;23.90;46.47
18504;BME280;9381;54.244;10.074;2022-09-01T14:24:39;101911.41;;;23.64;47.80
18504;BME280;9381;54.244;10.074;2022-09-01T14:29:39;101895.69;;;23.74;46.76
18504;BME280;9381;54.244;10.074;2022-09-01T14:34:40;101901.50;;;23.93;46.79
18504;BME280;9381;54.244;10.074;2022-09-01T14:39:41;101899.81;;;23.77;46.37
18504;BME280;9381;54.244;10.074;2022-09-01T14:44:41;101888.22;;;23.65;47.22
18504;BME280;9381;54.244;10.074;2022-09-01T14:49:43;101880.47;;;23.57;47.19
18504;BME280;9381;54.244;10.074;2022-09-01T14:54:44;101869.94;;;23.24;47.10
18504;BME280;9381;54.244;10.074;2022-09-01T14:59:44;101873.72;;;23.08;47.24
18504;BME280;9381;54.244;10.074;2022-09-01T15:04:44;101864.34;;;23.09;47.00
18504;BME280;9381;54.244;10.074;2022-09-01T15:09:45;101859.91;;;23.13;47.68
18504;BME280;9381;54.244;10.074;2022-09-01T15:14:45;101850.78;;;23.07;47.47
18504;BME280;9381;54.244;10.074;2022-09-01T15:19:46;101848.25;;;22.81;47.48
18504;BME280;9381;54.244;10.074;2022-09-01T15:24:46;101845.41;;;22.61;47.99
18504;BME280;9381;54.244;10.074;2022-09-01T15:29:46;101834.34;;;22.56;48.33
18504;BME280;9381;54.244;10.074;2022-09-01T15:34:47;101834.38;;;22.66;48.88
18504;BME280;9381;54.244;10.074;2022-09-01T15:39:48;101839.59;;;22.57;48.49
18504;BME280;9381;54.244;10.074;2022-09-01T15:44:48;101824.91;;;22.47;49.19
18504;BME280;9381;54.244;10.074;2022-09-01T15:49:48;101822.63;;;22.34;49.04
18504;BME280;9381;54.244;10.074;2022-09-01T15:54:49;101833.00;;;22.17;49.91
18504;BME280;9381;54.244;10.074;2022-09-01T15:59:49;101826.88;;;22.10;50.22
18504;BME280;9381;54.244;10.074;2022-09-01T16:04:49;101826.81;;;22.00;50.15
18504;BME280;9381;54.244;10.074;2022-09-01T16:09:50;101812.72;;;21.91;49.96
18504;BME280;9381;54.244;10.074;2022-09-01T16:14:56;101818.38;;;21.75;51.38
18504;BME280;9381;54.244;10.074;2022-09-01T16:20:03;101811.75;;;21.71;51.71
18504;BME280;9381;54.244;10.074;2022-09-01T16:25:16;101806.69;;;21.63;52.09
18504;BME280;9381;54.244;10.074;2022-09-01T16:30:20;101817.16;;;21.61;53.09
18504;BME280;9381;54.244;10.074;2022-09-01T16:35:26;101810.09;;;21.43;53.67
18504;BME280;9381;54.244;10.074;2022-09-01T16:40:46;101804.91;;;21.47;53.80
18504;BME280;9381;54.244;10.074;2022-09-01T16:51:12;101797.88;;;21.03;54.86
18504;BME280;9381;54.244;10.074;2022-09-01T16:56:24;101798.06;;;20.97;55.32
18504;BME280;9381;54.244;10.074;2022-09-01T17:11:51;101799.94;;;20.91;57.10
18504;BME280;9381;54.244;10.074;2022-09-01T17:16:57;101802.91;;;20.63;58.61
18504;BME280;9381;54.244;10.074;2022-09-01T17:22:05;101792.88;;;20.52;59.14
18504;BME280;9381;54.244;10.074;2022-09-01T17:32:35;101808.50;;;20.30;59.73
18504;BME280;9381;54.244;10.074;2022-09-01T17:48:51;101821.72;;;19.95;61.27
18504;BME280;9381;54.244;10.074;2022-09-01T17:59:29;101818.06;;;19.73;63.07
18504;BME280;9381;54.244;10.074;2022-09-01T18:04:41;101813.19;;;19.42;63.82
18504;BME280;9381;54.244;10.074;2022-09-01T18:09:53;101821.06;;;19.22;64.26
18504;BME280;9381;54.244;10.074;2022-09-01T18:15:21;101823.88;;;18.99;64.82
18504;BME280;9381;54.244;10.074;2022-09-01T18:20:44;101820.09;;;18.89;65.28
18504;BME280;9381;54.244;10.074;2022-09-01T18:25:50;101838.25;;;18.78;65.91
18504;BME280;9381;54.244;10.074;2022-09-01T18:31:00;101826.91;;;18.58;66.47
18504;BME280;9381;54.244;10.074;2022-09-01T18:41:39;101836.56;;;18.15;68.04
18504;BME280;9381;54.244;10.074;2022-09-01T18:46:53;101841.13;;;17.87;68.72
18504;BME280;9381;54.244;10.074;2022-09-01T18:57:24;101855.72;;;17.58;70.35
18504;BME280;9381;54.244;10.074;2022-09-01T19:02:45;101851.22;;;17.34;71.01
18504;BME280;9381;54.244;10.074;2022-09-01T19:07:56;101862.22;;;17.16;71.59
18504;BME280;9381;54.244;10.074;2022-09-01T19:13:06;101850.16;;;16.94;72.30
18504;BME280;9381;54.244;10.074;2022-09-01T19:18:20;101859.25;;;16.88;72.77
18504;BME280;9381;54.244;10.074;2022-09-01T19:28:35;101861.13;;;16.58;73.53
18504;BME280;9381;54.244;10.074;2022-09-01T19:33:50;101857.13;;;16.36;74.01
18504;BME280;9381;54.244;10.074;2022-09-01T19:38:51;101861.97;;;16.16;74.65
18504;BME280;9381;54.244;10.074;2022-09-01T19:43:58;101865.44;;;16.05;74.96
18504;BME280;9381;54.244;10.074;2022-09-01T19:59:37;101857.69;;;15.84;75.88
18504;BME280;9381;54.244;10.074;2022-09-01T20:04:52;101846.41;;;15.74;75.96
18504;BME280;9381;54.244;10.074;2022-09-01T20:15:33;101852.44;;;15.58;76.59
18504;BME280;9381;54.244;10.074;2022-09-01T20:20:45;101846.66;;;15.48;76.61
18504;BME280;9381;54.244;10.074;2022-09-01T20:25:51;101846.22;;;15.51;76.84
18504;BME280;9381;54.244;10.074;2022-09-01T20:31:00;101842.69;;;15.44;76.67
18504;BME280;9381;54.244;10.074;2022-09-01T20:36:15;101843.41;;;15.33;76.96
18504;BME280;9381;54.244;10.074;2022-09-01T20:41:48;101835.38;;;15.38;77.23
18504;BME280;9381;54.244;10.074;2022-09-01T20:46:50;101837.56;;;15.23;77.02
18504;BME280;9381;54.244;10.074;2022-09-01T20:52:06;101837.84;;;15.15;77.80
18504;BME280;9381;54.244;10.074;2022-09-01T20:57:29;101841.03;;;15.05;77.88
18504;BME280;9381;54.244;10.074;2022-09-01T21:12:56;101836.06;;;14.96;78.45
18504;BME280;9381;54.244;10.074;2022-09-01T21:23:19;101844.94;;;14.78;79.64
18504;BME280;9381;54.244;10.074;2022-09-01T21:28:20;101841.22;;;14.73;80.15
18504;BME280;9381;54.244;10.074;2022-09-01T21:33:28;101837.06;;;14.64;80.73
18504;BME280;9381;54.244;10.074;2022-09-01T21:38:28;101843.81;;;14.55;80.75
18504;BME280;9381;54.244;10.074;2022-09-01T21:43:32;101851.72;;;14.63;82.32
18504;BME280;9381;54.244;10.074;2022-09-01T21:48:33;101845.44;;;14.69;82.26
18504;BME280;9381;54.244;10.074;2022-09-01T21:53:34;101852.75;;;14.68;82.16
18504;BME280;9381;54.244;10.074;2022-09-01T21:58:36;101844.22;;;14.65;82.69
18504;BME280;9381;54.244;10.074;2022-09-01T22:03:36;101850.53;;;14.53;83.02
18504;BME280;9381;54.244;10.074;2022-09-01T22:08:37;101850.53;;;14.46;83.58
18504;BME280;9381;54.244;10.074;2022-09-01T22:13:38;101855.59;;;14.36;83.95
18504;BME280;9381;54.244;10.074;2022-09-01T22:18:38;101857.53;;;14.29;84.67
18504;BME280;9381;54.244;10.074;2022-09-01T22:23:39;101855.22;;;14.26;85.02
18504;BME280;9381;54.244;10.074;2022-09-01T22:28:39;101852.50;;;14.26;85.38
18504;BME280;9381;54.244;10.074;2022-09-01T22:33:41;101852.69;;;14.31;84.98
18504;BME280;9381;54.244;10.074;2022-09-01T22:38:42;101852.31;;;14.21;85.30
18504;BME280;9381;54.244;10.074;2022-09-01T22:43:42;101847.69;;;14.09;86.32
18504;BME280;9381;54.244;10.074;2022-09-01T22:48:43;101851.06;;;14.04;86.64
18504;BME280;9381;54.244;10.074;2022-09-01T22:53:44;101845.41;;;14.06;86.97
18504;BME280;9381;54.244;10.074;2022-09-01T22:58:46;101842.69;;;13.99;87.32
18504;BME280;9381;54.244;10.074;2022-09-01T23:03:47;101836.41;;;14.05;87.40
18504;BME280;9381;54.244;10.074;2022-09-01T23:08:48;101843.13;;;13.96;88.32
18504;BME280;9381;54.244;10.074;2022-09-01T23:13:48;101832.22;;;13.96;88.38
18504;BME280;9381;54.244;10.074;2022-09-01T23:18:50;101842.72;;;13.86;89.75
18504;BME280;9381;54.244;10.074;2022-09-01T23:23:50;101828.03;;;13.94;89.98
18504;BME280;9381;54.244;10.074;2022-09-01T23:28:51;101822.59;;;13.94;89.64
18504;BME280;9381;54.244;10.074;2022-09-01T23:33:52;101824.72;;;13.92;90.32
18504;BME280;9381;54.244;10.074;2022-09-01T23:38:54;101827.88;;;13.89;90.16
18504;BME280;9381;54.244;10.074;2022-09-01T23:43:56;101818.44;;;13.85;91.14
18504;BME280;9381;54.244;10.074;2022-09-01T23:48:56;101818.03;;;13.81;91.86
18504;BME280;9381;54.244;10.074;2022-09-01T23:53:57;101819.06;;;13.80;91.73
18504;BME280;9381;54.244;10.074;2022-09-01T23:58:58;101822.00;;;13.85;93.07
